Time,TemperatureF,DewpointF,PressureIn,WindDirection,WindDirectionDegrees,WindSpeedMPH,WindSpeedGustMPH,Humidity,HourlyPrecipIn,Conditions,Clouds,dailyrainin,SoftwareType,DateUTC
2013-06-27 00:11:00,64.3,63.0,29.77,East,84,0.0,1.0,95,0.00,,,0.00,weatherlink.com 1.10,2013-06-27 04:11:00,
2013-06-27 00:26:00,64.6,63.0,29.77,ENE,73,1.0,1.0,95,0.00,,,0.00,weatherlink.com 1.10,2013-06-27 04:26:00,
2013-06-27 00:41:00,64.7,63.0,29.77,ENE,59,0.0,2.0,94,0.00,,,0.00,weatherlink.com 1.10,2013-06-27 04:41:00,
2013-06-27 00:56:00,64.8,63.0,29.77,East,80,0.0,2.0,94,0.00,,,0.00,weatherlink.com 1.10,2013-06-27 04:56:00,
2013-06-27 01:11:00,64.9,64.0,29.77,ESE,114,0.0,1.0,95,0.00,,,0.00,weatherlink.com 1.10,2013-06-27 05:11:00,
2013-06-27 01:26:00,64.8,63.0,29.76,ESE,115,0.0,1.0,95,0.00,,,0.00,weatherlink.com 1.10,2013-06-27 05:26:00,
2013-06-27 01:41:00,64.9,64.0,29.76,East,83,0.0,2.0,95,0.00,,,0.00,weatherlink.com 1.10,2013-06-27 05:41:00,
2013-06-27 01:56:00,64.9,64.0,29.76,ESE,119,0.0,2.0,95,0.00,,,0.00,weatherlink.com 1.10,2013-06-27 05:56:00,
2013-06-27 02:11:00,65.0,64.0,29.76,ENE,77,0.0,1.0,96,0.00,,,0.00,weatherlink.com 1.10,2013-06-27 06:11:00,
2013-06-27 02:26:00,65.0,64.0,29.75,ESE,104,0.0,1.0,96,0.00,,,0.00,weatherlink.com 1.10,2013-06-27 06:26:00,
2013-06-27 02:41:00,64.7,64.0,29.75,East,83,0.0,1.0,96,0.00,,,0.00,weatherlink.com 1.10,2013-06-27 06:41:00,
2013-06-27 02:56:00,64.5,63.0,29.75,SSE,160,0.0,2.0,96,0.00,,,0.00,weatherlink.com 1.10,2013-06-27 06:56:00,
2013-06-27 03:11:00,64.3,63.0,29.74,SSW,194,0.0,1.0,96,0.00,,,0.00,weatherlink.com 1.10,2013-06-27 07:11:00,
2013-06-27 03:26:00,64.7,64.0,29.75,ENE,77,0.0,1.0,97,0.00,,,0.00,weatherlink.com 1.10,2013-06-27 07:26:00,
2013-06-27 03:41:00,64.5,64.0,29.74,ENE,65,0.0,1.0,97,0.00,,,0.00,weatherlink.com 1.10,2013-06-27 07:41:00,
2013-06-27 03:56:00,64.3,64.0,29.74,ENE,58,0.0,1.0,97,0.00,,,0.00,weatherlink.com 1.10,2013-06-27 07:56:00,
2013-06-27 04:11:00,64.3,64.0,29.75,NW,316,0.0,2.0,97,0.00,,,0.00,weatherlink.com 1.10,2013-06-27 08:11:00,
2013-06-27 04:26:00,64.1,63.0,29.75,NNW,341,0.0,1.0,97,0.00,,,0.00,weatherlink.com 1.10,2013-06-27 08:26:00,
2013-06-27 04:41:00,64.1,63.0,29.76,NNE,18,0.0,1.0,97,0.00,,,0.00,weatherlink.com 1.10,2013-06-27 08:41:00,
2013-06-27 04:56:00,64.0,63.0,29.76,NNE,18,0.0,1.0,97,0.00,,,0.00,weatherlink.com 1.10,2013-06-27 08:56:00,
2013-06-27 05:11:00,64.2,63.0,29.76,NNE,19,0.0,1.0,97,0.00,,,0.00,weatherlink.com 1.10,2013-06-27 09:11:00,
2013-06-27 05:26:00,64.0,63.0,29.76,NE,37,0.0,1.0,97,0.00,,,0.00,weatherlink.com 1.10,2013-06-27 09:26:00,
2013-06-27 05:41:00,63.5,63.0,29.76,NE,37,0.0,1.0,97,0.00,,,0.00,weatherlink.com 1.10,2013-06-27 09:41:00,
2013-06-27 05:56:00,63.4,63.0,29.76,North,9,0.0,1.0,97,0.00,,,0.00,weatherlink.com 1.10,2013-06-27 09:56:00,
2013-06-27 06:11:00,63.4,63.0,29.75,SSE,162,0.0,1.0,97,0.00,,,0.00,weatherlink.com 1.10,2013-06-27 10:11:00,
2013-06-27 06:26:00,63.5,63.0,29.76,SSE,164,0.0,1.0,97,0.00,,,0.00,weatherlink.com 1.10,2013-06-27 10:26:00,
2013-06-27 06:41:00,63.7,63.0,29.77,SW,233,0.0,1.0,97,0.00,,,0.00,weatherlink.com 1.10,2013-06-27 10:41:00,
2013-06-27 06:56:00,64.1,63.0,29.77,NNW,329,0.0,1.0,97,0.00,,,0.00,weatherlink.com 1.10,2013-06-27 10:56:00,
2013-06-27 07:11:00,64.5,64.0,29.76,NE,52,0.0,1.0,97,0.00,,,0.00,weatherlink.com 1.10,2013-06-27 11:11:00,
2013-06-27 07:26:00,64.6,64.0,29.77,NE,41,0.0,2.0,97,0.00,,,0.00,weatherlink.com 1.10,2013-06-27 11:26:00,
2013-06-27 07:41:00,65.2,64.0,29.76,NE,53,0.0,2.0,97,0.00,,,0.00,weatherlink.com 1.10,2013-06-27 11:41:00,
2013-06-27 07:56:00,66.0,65.0,29.76,ENE,69,0.0,1.0,97,0.00,,,0.00,weatherlink.com 1.10,2013-06-27 11:56:00,
2013-06-27 08:11:00,66.5,65.0,29.75,ENE,69,0.0,1.0,95,0.00,,,0.00,weatherlink.com 1.10,2013-06-27 12:11:00,
2013-06-27 08:26:00,66.9,65.0,29.75,South,172,0.0,2.0,94,0.00,,,0.00,weatherlink.com 1.10,2013-06-27 12:26:00,
2013-06-27 08:41:00,67.7,65.0,29.75,SE,146,0.0,1.0,91,0.00,,,0.00,weatherlink.com 1.10,2013-06-27 12:41:00,
2013-06-27 08:56:00,68.0,65.0,29.75,NE,51,0.0,1.0,91,0.00,,,0.00,weatherlink.com 1.10,2013-06-27 12:56:00,
2013-06-27 09:12:00,68.7,66.0,29.75,ESE,121,0.0,1.0,91,0.00,,,0.00,weatherlink.com 1.10,2013-06-27 13:12:00,
2013-06-27 09:27:00,69.8,66.0,29.75,West,263,0.0,1.0,88,0.00,,,0.00,weatherlink.com 1.10,2013-06-27 13:27:00,
2013-06-27 09:42:00,71.0,67.0,29.75,WSW,249,0.0,1.0,88,0.00,,,0.00,weatherlink.com 1.10,2013-06-27 13:42:00,
2013-06-27 09:57:00,72.2,68.0,29.76,NNE,22,3.0,3.0,87,0.00,,,0.00,weatherlink.com 1.10,2013-06-27 13:57:00,
2013-06-27 10:12:00,73.0,68.0,29.76,NNW,339,1.0,4.0,85,0.00,,,0.00,weatherlink.com 1.10,2013-06-27 14:12:00,
2013-06-27 10:27:00,72.9,69.0,29.75,NW,323,3.0,5.0,86,0.00,,,0.00,weatherlink.com 1.10,2013-06-27 14:27:00,
2013-06-27 10:42:00,73.7,67.0,29.75,NNW,331,1.0,5.0,79,0.00,,,0.00,weatherlink.com 1.10,2013-06-27 14:42:00,
2013-06-27 10:57:00,74.8,67.0,29.75,NNE,30,1.0,3.0,76,0.00,,,0.00,weatherlink.com 1.10,2013-06-27 14:57:00,
2013-06-27 11:12:00,74.8,67.0,29.74,NNW,328,0.0,1.0,76,0.00,,,0.00,weatherlink.com 1.10,2013-06-27 15:12:00,
2013-06-27 11:27:00,74.4,67.0,29.75,NW,321,0.0,1.0,78,0.00,,,0.00,weatherlink.com 1.10,2013-06-27 15:27:00,
2013-06-27 11:42:00,74.5,69.0,29.75,NW,319,0.0,1.0,82,0.00,,,0.00,weatherlink.com 1.10,2013-06-27 15:42:00,
2013-06-27 11:57:00,75.8,70.0,29.74,NW,324,0.0,2.0,81,0.00,,,0.00,weatherlink.com 1.10,2013-06-27 15:57:00,
2013-06-27 12:12:00,76.9,66.0,29.74,NNW,341,0.0,1.0,70,0.00,,,0.00,weatherlink.com 1.10,2013-06-27 16:12:00,
2013-06-27 12:27:00,79.3,66.0,29.73,NNE,32,0.0,0.0,64,0.00,,,0.00,weatherlink.com 1.10,2013-06-27 16:27:00,
2013-06-27 12:42:00,78.9,65.0,29.73,West,271,0.0,3.0,62,0.00,,,0.00,weatherlink.com 1.10,2013-06-27 16:42:00,
2013-06-27 12:57:00,79.2,69.0,29.72,SW,225,0.0,1.0,70,0.00,,,0.00,weatherlink.com 1.10,2013-06-27 16:57:00,
2013-06-27 13:12:00,79.6,69.0,29.72,SW,219,0.0,1.0,70,0.00,,,0.00,weatherlink.com 1.10,2013-06-27 17:12:00,
2013-06-27 13:27:00,78.7,65.0,29.71,North,6,0.0,2.0,63,0.00,,,0.00,weatherlink.com 1.10,2013-06-27 17:27:00,
2013-06-27 13:42:00,77.5,68.0,29.71,NW,325,3.0,3.0,73,0.00,,,0.00,weatherlink.com 1.10,2013-06-27 17:42:00,
2013-06-27 13:57:00,78.4,67.0,29.71,NNW,347,1.0,6.0,68,0.00,,,0.00,weatherlink.com 1.10,2013-06-27 17:57:00,
2013-06-27 14:12:00,78.9,67.0,29.71,NW,324,1.0,5.0,66,0.00,,,0.00,weatherlink.com 1.10,2013-06-27 18:12:00,
2013-06-27 14:27:00,78.5,67.0,29.71,ESE,120,1.0,6.0,67,0.00,,,0.00,weatherlink.com 1.10,2013-06-27 18:27:00,
2013-06-27 14:42:00,79.1,67.0,29.70,West,259,0.0,4.0,67,0.00,,,0.00,weatherlink.com 1.10,2013-06-27 18:42:00,
2013-06-27 14:57:00,79.6,69.0,29.70,West,263,1.0,2.0,69,0.00,,,0.00,weatherlink.com 1.10,2013-06-27 18:57:00,
2013-06-27 15:12:00,79.1,65.0,29.70,SE,145,0.0,1.0,63,0.00,,,0.00,weatherlink.com 1.10,2013-06-27 19:12:00,
2013-06-27 15:27:00,79.4,65.0,29.69,NW,308,1.0,1.0,61,0.00,,,0.00,weatherlink.com 1.10,2013-06-27 19:27:00,
2013-06-27 15:43:00,78.4,68.0,29.69,NNW,330,0.0,0.0,70,0.00,,,0.00,weatherlink.com 1.10,2013-06-27 19:43:00,
2013-06-27 15:58:00,78.6,68.0,29.68,NW,311,0.0,2.0,69,0.00,,,0.00,weatherlink.com 1.10,2013-06-27 19:58:00,
2013-06-27 16:13:00,78.0,67.0,29.68,NNW,332,0.0,1.0,69,0.00,,,0.00,weatherlink.com 1.10,2013-06-27 20:13:00,
2013-06-27 16:28:00,78.2,69.0,29.68,NW,319,0.0,1.0,73,0.00,,,0.00,weatherlink.com 1.10,2013-06-27 20:28:00,
2013-06-27 16:43:00,78.8,66.0,29.68,NW,308,0.0,2.0,64,0.00,,,0.00,weatherlink.com 1.10,2013-06-27 20:43:00,
2013-06-27 16:58:00,76.9,68.0,29.67,NW,308,0.0,0.0,73,0.00,,,0.00,weatherlink.com 1.10,2013-06-27 20:58:00,
2013-06-27 17:13:00,75.2,68.0,29.68,NW,308,0.0,0.0,77,0.00,,,0.00,weatherlink.com 1.10,2013-06-27 21:13:00,
2013-06-27 17:28:00,74.6,68.0,29.68,ENE,63,0.0,2.0,79,0.00,,,0.00,weatherlink.com 1.10,2013-06-27 21:28:00,
2013-06-27 17:43:00,73.2,67.0,29.68,NNE,12,0.0,3.0,81,0.00,,,0.00,weatherlink.com 1.10,2013-06-27 21:43:00,
2013-06-27 17:58:00,72.2,66.0,29.68,West,264,0.0,0.0,82,0.00,,,0.00,weatherlink.com 1.10,2013-06-27 21:58:00,
2013-06-27 18:13:00,71.2,67.0,29.68,SW,232,0.0,1.0,85,0.00,,,0.00,weatherlink.com 1.10,2013-06-27 22:13:00,
2013-06-27 18:28:00,70.4,67.0,29.69,SW,232,0.0,0.0,88,0.00,,,0.00,weatherlink.com 1.10,2013-06-27 22:28:00,
2013-06-27 18:58:00,69.4,66.0,29.68,East,98,0.0,1.0,89,0.00,,,0.00,weatherlink.com 1.10,2013-06-27 22:58:00,
2013-06-27 19:43:00,68.7,65.0,29.68,East,99,0.0,0.0,89,0.00,,,0.00,weatherlink.com 1.10,2013-06-27 23:43:00,
2013-06-27 19:58:00,68.8,66.0,29.68,East,99,0.0,0.0,90,0.00,,,0.00,weatherlink.com 1.10,2013-06-27 23:58:00,
2013-06-27 20:28:00,68.3,65.0,29.68,East,99,0.0,0.0,89,0.00,,,0.00,weatherlink.com 1.10,2013-06-28 00:28:00,
2013-06-27 20:43:00,67.6,65.0,29.68,East,98,0.0,0.0,91,0.00,,,0.00,weatherlink.com 1.10,2013-06-28 00:43:00,
2013-06-27 20:58:00,67.1,65.0,29.68,East,96,0.0,0.0,92,0.00,,,0.00,weatherlink.com 1.10,2013-06-28 00:58:00,
2013-06-27 21:13:00,66.6,65.0,29.68,East,96,0.0,0.0,93,0.00,,,0.00,weatherlink.com 1.10,2013-06-28 01:13:00,
2013-06-27 21:28:00,66.2,64.0,29.68,East,96,0.0,0.0,93,0.00,,,0.00,weatherlink.com 1.10,2013-06-28 01:28:00,
2013-06-27 21:43:00,65.7,64.0,29.68,East,96,0.0,0.0,94,0.00,,,0.00,weatherlink.com 1.10,2013-06-28 01:43:00,
2013-06-27 22:13:00,66.2,65.0,29.67,East,96,0.0,0.0,94,0.00,,,0.00,weatherlink.com 1.10,2013-06-28 02:13:00,
2013-06-27 22:28:00,66.5,65.0,29.68,East,96,0.0,0.0,93,0.00,,,0.00,weatherlink.com 1.10,2013-06-28 02:28:00,
2013-06-27 22:44:00,66.6,64.0,29.68,East,96,0.0,0.0,92,0.00,,,0.00,weatherlink.com 1.10,2013-06-28 02:44:00,
2013-06-27 22:58:00,66.3,64.0,29.67,East,96,0.0,0.0,93,0.00,,,0.00,weatherlink.com 1.10,2013-06-28 02:58:00,
2013-06-27 23:28:00,65.7,64.0,29.66,East,96,0.0,0.0,94,0.00,,,0.00,weatherlink.com 1.10,2013-06-28 03:28:00,